Impacts TAF Board INFO
FOR SITUATIONAL AWARENESS. NOT TO BE USED FOR FLIGHT PLANNING PURPOSES.
IDs:

KMSP - Minneapolis-St Paul, MN, US

Issued at 0846 UTC 24 Jan 2017
Updated at 1111 UTC 24 Jan 2017
Potential Impact None Slight Moderate High
Time1053Z 24/12Z 24/13Z 24/14Z 24/15Z 24/16Z 24/17Z 24/18Z 24/19Z 24/20Z 24/21Z 24/22Z 24/23Z 25/00Z
Type OBS PRVL PRVL PRVL PRVL PRVL PRVL PRVL PRVL PRVL PRVL PRVL PRVL PRVL
VIS 9 >6 >6 >6 >6 >6 >6 >6 >6 >6 >6 >6 >6 >6
CIG 13 15 15 15 15 12 12 12 12 12 12 12 12 12
Cover OVC OVC OVC OVC OVC OVC OVC OVC OVC OVC OVC OVC OVC OVC
FltCat MVFR MVFR MVFR MVFR MVFR MVFR MVFR MVFR MVFR MVFR MVFR MVFR MVFR MVFR
WX -- -- -- -- -- -- -- -- -- -- -- -- -- --
WDir 20 VRB VRB VRB VRB 90 90 90 90 90 90 90 90 90
WSpd 4 2 2 2 2 4 4 4 4 4 4 4 4 4
WGst -- -- -- -- -- -- -- -- -- -- -- -- -- --

Raw TAF
KMSP 240846Z 2409/2512 VRB02KT P6SM OVC015
  FM241600 09004KT P6SM OVC012
  FM250200 06009KT 2SM -SN BR OVC010
  FM250400 04012KT 3/4SM -SN BR VV008


Raw METAR
KMSP 241053Z 02004KT 9SM OVC013 00/M03 A2987 RMK AO2 SLP125 T00001033
KMSP 240953Z 34005KT 8SM OVC013 00/M03 A2987 RMK AO2 SLP125 T00001033
KMSP 240853Z 36004KT 8SM OVC013 00/M03 A2988 RMK AO2 SLP127 T00001028 53008

METAR Board
Radar Display
Forecast Discussion

FOR SITUATIONAL AWARENESS. NOT TO BE USED FOR FLIGHT PLANNING PURPOSES.

Page loaded:  11:11 UTC  |   03:11 AM Pacific  |   04:11 AM Mountain  |   05:11 AM Central  |   06:11 AM Eastern

 

ADVISORIES

FORECASTS

FORECASTS

OBSERVATIONS

USER TOOLS

ABOUT US